sensor_id;sensor_type;location;lat;lon;timestamp;temperature;humidity
7936;DHT22;4013;49.744;8.118;2023-07-13T00:01:05;19.30;99.90
7936;DHT22;4013;49.744;8.118;2023-07-13T00:03:32;19.20;99.90
7936;DHT22;4013;49.744;8.118;2023-07-13T00:06:01;19.20;99.90
7936;DHT22;4013;49.744;8.118;2023-07-13T00:08:31;19.30;99.90
7936;DHT22;4013;49.744;8.118;2023-07-13T00:10:59;19.30;99.90
7936;DHT22;4013;49.744;8.118;2023-07-13T00:13:26;19.30;99.90
7936;DHT22;4013;49.744;8.118;2023-07-13T00:15:53;19.20;99.90
7936;DHT22;4013;49.744;8.118;2023-07-13T00:18:21;19.20;99.90
7936;DHT22;4013;49.744;8.118;2023-07-13T00:20:48;19.20;99.90
7936;DHT22;4013;49.744;8.118;2023-07-13T00:23:16;19.10;99.90
7936;DHT22;4013;49.744;8.118;2023-07-13T00:25:46;19.20;99.90
7936;DHT22;4013;49.744;8.118;2023-07-13T00:28:13;19.10;99.90
7936;DHT22;4013;49.744;8.118;2023-07-13T00:30:39;19.20;99.90
7936;DHT22;4013;49.744;8.118;2023-07-13T00:33:06;19.00;99.90
7936;DHT22;4013;49.744;8.118;2023-07-13T00:35:34;18.90;99.90
7936;DHT22;4013;49.744;8.118;2023-07-13T00:38:01;18.80;99.90
7936;DHT22;4013;49.744;8.118;2023-07-13T00:40:28;18.80;99.90
7936;DHT22;4013;49.744;8.118;2023-07-13T00:42:58;18.70;99.90
7936;DHT22;4013;49.744;8.118;2023-07-13T00:46:09;18.60;99.90
7936;DHT22;4013;49.744;8.118;2023-07-13T00:48:37;18.60;99.90
7936;DHT22;4013;49.744;8.118;2023-07-13T00:51:04;18.40;99.90
7936;DHT22;4013;49.744;8.118;2023-07-13T00:53:33;18.40;99.90
7936;DHT22;4013;49.744;8.118;2023-07-13T00:56:01;18.30;99.90
7936;DHT22;4013;49.744;8.118;2023-07-13T00:58:30;18.30;99.90
7936;DHT22;4013;49.744;8.118;2023-07-13T01:00:58;18.20;99.90
7936;DHT22;4013;49.744;8.118;2023-07-13T01:03:25;18.30;99.90
7936;DHT22;4013;49.744;8.118;2023-07-13T01:05:51;18.40;99.90
7936;DHT22;4013;49.744;8.118;2023-07-13T01:08:20;18.30;99.90
7936;DHT22;4013;49.744;8.118;2023-07-13T01:10:52;18.30;99.90
7936;DHT22;4013;49.744;8.118;2023-07-13T01:13:19;18.20;99.90
7936;DHT22;4013;49.744;8.118;2023-07-13T01:15:49;18.10;99.90
7936;DHT22;4013;49.744;8.118;2023-07-13T01:18:19;18.20;99.90
7936;DHT22;4013;49.744;8.118;2023-07-13T01:20:52;18.20;99.90
7936;DHT22;4013;49.744;8.118;2023-07-13T01:23:20;18.00;99.90
7936;DHT22;4013;49.744;8.118;2023-07-13T01:25:47;18.00;99.90
7936;DHT22;4013;49.744;8.118;2023-07-13T01:28:14;18.00;99.90
7936;DHT22;4013;49.744;8.118;2023-07-13T01:30:43;18.00;99.90
7936;DHT22;4013;49.744;8.118;2023-07-13T01:33:12;18.00;99.90
7936;DHT22;4013;49.744;8.118;2023-07-13T01:35:39;18.00;99.90
7936;DHT22;4013;49.744;8.118;2023-07-13T01:38:09;18.10;99.90
7936;DHT22;4013;49.744;8.118;2023-07-13T01:40:38;18.10;99.90
7936;DHT22;4013;49.744;8.118;2023-07-13T01:43:05;18.10;99.90
7936;DHT22;4013;49.744;8.118;2023-07-13T01:45:32;18.10;99.90
7936;DHT22;4013;49.744;8.118;2023-07-13T01:47:59;18.00;99.90
7936;DHT22;4013;49.744;8.118;2023-07-13T01:50:27;18.00;99.90
7936;DHT22;4013;49.744;8.118;2023-07-13T01:52:54;17.90;99.90
7936;DHT22;4013;49.744;8.118;2023-07-13T01:55:22;17.90;99.90
7936;DHT22;4013;49.744;8.118;2023-07-13T01:57:49;17.80;99.90
7936;DHT22;4013;49.744;8.118;2023-07-13T02:00:17;17.80;99.90
7936;DHT22;4013;49.744;8.118;2023-07-13T02:02:44;17.80;99.90
7936;DHT22;4013;49.744;8.118;2023-07-13T02:05:11;17.80;99.90
7936;DHT22;4013;49.744;8.118;2023-07-13T02:07:38;17.70;99.90
7936;DHT22;4013;49.744;8.118;2023-07-13T02:10:06;17.60;99.90
7936;DHT22;4013;49.744;8.118;2023-07-13T02:12:35;17.50;99.90
7936;DHT22;4013;49.744;8.118;2023-07-13T02:15:03;17.50;99.90
7936;DHT22;4013;49.744;8.118;2023-07-13T02:17:31;17.50;99.90
7936;DHT22;4013;49.744;8.118;2023-07-13T02:19:58;17.50;99.90
7936;DHT22;4013;49.744;8.118;2023-07-13T02:22:25;17.50;99.90
7936;DHT22;4013;49.744;8.118;2023-07-13T02:24:52;17.50;99.90
7936;DHT22;4013;49.744;8.118;2023-07-13T02:27:19;17.50;99.90
7936;DHT22;4013;49.744;8.118;2023-07-13T02:29:47;17.40;99.90
7936;DHT22;4013;49.744;8.118;2023-07-13T02:32:17;17.40;99.90
7936;DHT22;4013;49.744;8.118;2023-07-13T02:34:44;17.40;99.90
7936;DHT22;4013;49.744;8.118;2023-07-13T02:37:11;17.40;99.90
7936;DHT22;4013;49.744;8.118;2023-07-13T02:39:38;17.50;99.90
7936;DHT22;4013;49.744;8.118;2023-07-13T02:42:05;17.40;99.90
7936;DHT22;4013;49.744;8.118;2023-07-13T02:44:33;17.50;99.90
7936;DHT22;4013;49.744;8.118;2023-07-13T02:47:01;17.60;99.90
7936;DHT22;4013;49.744;8.118;2023-07-13T02:49:28;17.60;99.90
7936;DHT22;4013;49.744;8.118;2023-07-13T02:51:55;17.50;99.90
7936;DHT22;4013;49.744;8.118;2023-07-13T02:54:22;17.50;99.90
7936;DHT22;4013;49.744;8.118;2023-07-13T02:56:49;17.50;99.90
7936;DHT22;4013;49.744;8.118;2023-07-13T02:59:16;17.50;99.90
7936;DHT22;4013;49.744;8.118;2023-07-13T03:01:43;17.50;99.90
7936;DHT22;4013;49.744;8.118;2023-07-13T03:04:11;17.50;99.90
7936;DHT22;4013;49.744;8.118;2023-07-13T03:06:38;17.50;99.90
7936;DHT22;4013;49.744;8.118;2023-07-13T03:09:05;17.40;99.90
7936;DHT22;4013;49.744;8.118;2023-07-13T03:11:33;17.30;99.90
7936;DHT22;4013;49.744;8.118;2023-07-13T03:14:00;17.30;99.90
7936;DHT22;4013;49.744;8.118;2023-07-13T03:16:27;17.20;99.90
7936;DHT22;4013;49.744;8.118;2023-07-13T03:18:54;17.20;99.90
7936;DHT22;4013;49.744;8.118;2023-07-13T03:21:22;17.20;99.90
7936;DHT22;4013;49.744;8.118;2023-07-13T03:23:49;17.20;99.90
7936;DHT22;4013;49.744;8.118;2023-07-13T03:26:18;17.20;99.90
7936;DHT22;4013;49.744;8.118;2023-07-13T03:28:45;17.20;99.90
7936;DHT22;4013;49.744;8.118;2023-07-13T03:31:14;17.20;99.90
7936;DHT22;4013;49.744;8.118;2023-07-13T03:33:42;17.10;99.90
7936;DHT22;4013;49.744;8.118;2023-07-13T03:36:15;17.10;99.90
7936;DHT22;4013;49.744;8.118;2023-07-13T03:38:46;17.10;99.90
7936;DHT22;4013;49.744;8.118;2023-07-13T03:41:14;17.00;99.90
7936;DHT22;4013;49.744;8.118;2023-07-13T03:43:41;17.00;99.90
7936;DHT22;4013;49.744;8.118;2023-07-13T03:46:08;17.00;99.90
7936;DHT22;4013;49.744;8.118;2023-07-13T03:48:35;16.90;99.90
7936;DHT22;4013;49.744;8.118;2023-07-13T03:51:03;16.90;99.90
7936;DHT22;4013;49.744;8.118;2023-07-13T03:53:29;16.90;99.90
7936;DHT22;4013;49.744;8.118;2023-07-13T03:55:58;16.90;99.90
7936;DHT22;4013;49.744;8.118;2023-07-13T03:58:31;16.80;99.90
7936;DHT22;4013;49.744;8.118;2023-07-13T04:00:59;16.80;99.90
7936;DHT22;4013;49.744;8.118;2023-07-13T04:03:26;16.80;99.90
7936;DHT22;4013;49.744;8.118;2023-07-13T04:05:54;16.90;99.90
7936;DHT22;4013;49.744;8.118;2023-07-13T04:08:25;16.90;99.90
7936;DHT22;4013;49.744;8.118;2023-07-13T04:10:52;17.00;99.90
7936;DHT22;4013;49.744;8.118;2023-07-13T04:13:20;17.10;99.90
7936;DHT22;4013;49.744;8.118;2023-07-13T04:15:47;17.20;99.90
7936;DHT22;4013;49.744;8.118;2023-07-13T04:18:14;17.20;99.90
7936;DHT22;4013;49.744;8.118;2023-07-13T04:20:41;17.40;99.90
7936;DHT22;4013;49.744;8.118;2023-07-13T04:23:08;17.40;99.90
7936;DHT22;4013;49.744;8.118;2023-07-13T04:25:35;17.50;99.90
7936;DHT22;4013;49.744;8.118;2023-07-13T04:28:03;17.70;99.90
7936;DHT22;4013;49.744;8.118;2023-07-13T04:30:32;17.80;99.90
7936;DHT22;4013;49.744;8.118;2023-07-13T04:32:59;18.00;99.90
7936;DHT22;4013;49.744;8.118;2023-07-13T04:35:26;18.10;99.90
7936;DHT22;4013;49.744;8.118;2023-07-13T04:37:53;18.00;99.90
7936;DHT22;4013;49.744;8.118;2023-07-13T04:40:20;18.10;99.90
7936;DHT22;4013;49.744;8.118;2023-07-13T04:42:47;18.10;99.90
7936;DHT22;4013;49.744;8.118;2023-07-13T04:45:14;18.10;99.90
7936;DHT22;4013;49.744;8.118;2023-07-13T04:47:44;18.10;99.90
7936;DHT22;4013;49.744;8.118;2023-07-13T04:50:13;18.10;99.90
7936;DHT22;4013;49.744;8.118;2023-07-13T04:52:41;18.10;99.90
7936;DHT22;4013;49.744;8.118;2023-07-13T04:55:08;18.00;99.90
7936;DHT22;4013;49.744;8.118;2023-07-13T04:57:35;18.10;99.90
7936;DHT22;4013;49.744;8.118;2023-07-13T05:00:03;18.10;99.90
7936;DHT22;4013;49.744;8.118;2023-07-13T05:02:32;18.10;99.90
7936;DHT22;4013;49.744;8.118;2023-07-13T05:05:01;18.20;99.90
7936;DHT22;4013;49.744;8.118;2023-07-13T05:07:29;18.30;99.90
7936;DHT22;4013;49.744;8.118;2023-07-13T05:09:58;18.30;99.90
7936;DHT22;4013;49.744;8.118;2023-07-13T05:12:25;18.30;99.90
7936;DHT22;4013;49.744;8.118;2023-07-13T05:14:52;18.30;99.90
7936;DHT22;4013;49.744;8.118;2023-07-13T05:17:19;18.30;99.90
7936;DHT22;4013;49.744;8.118;2023-07-13T05:19:46;18.30;99.90
7936;DHT22;4013;49.744;8.118;2023-07-13T05:22:14;18.40;99.90
7936;DHT22;4013;49.744;8.118;2023-07-13T05:24:41;18.40;99.90
7936;DHT22;4013;49.744;8.118;2023-07-13T05:27:08;18.50;99.90
7936;DHT22;4013;49.744;8.118;2023-07-13T05:29:35;18.50;99.90
7936;DHT22;4013;49.744;8.118;2023-07-13T05:32:02;18.50;99.90
7936;DHT22;4013;49.744;8.118;2023-07-13T05:34:29;18.50;99.90
7936;DHT22;4013;49.744;8.118;2023-07-13T05:36:56;18.50;99.90
7936;DHT22;4013;49.744;8.118;2023-07-13T05:39:25;18.50;99.90
7936;DHT22;4013;49.744;8.118;2023-07-13T05:41:53;18.60;99.90
7936;DHT22;4013;49.744;8.118;2023-07-13T05:44:20;18.70;99.90
7936;DHT22;4013;49.744;8.118;2023-07-13T05:46:47;18.80;99.90
7936;DHT22;4013;49.744;8.118;2023-07-13T05:49:14;18.90;99.90
7936;DHT22;4013;49.744;8.118;2023-07-13T05:51:41;18.90;99.90
7936;DHT22;4013;49.744;8.118;2023-07-13T05:54:08;18.90;99.90
7936;DHT22;4013;49.744;8.118;2023-07-13T05:56:36;19.00;99.90
7936;DHT22;4013;49.744;8.118;2023-07-13T05:59:03;19.10;99.90
7936;DHT22;4013;49.744;8.118;2023-07-13T06:01:30;19.20;99.90
7936;DHT22;4013;49.744;8.118;2023-07-13T06:03:58;19.40;99.90
7936;DHT22;4013;49.744;8.118;2023-07-13T06:06:25;19.50;99.90
7936;DHT22;4013;49.744;8.118;2023-07-13T06:08:52;19.70;99.90
7936;DHT22;4013;49.744;8.118;2023-07-13T06:11:20;19.80;99.90
7936;DHT22;4013;49.744;8.118;2023-07-13T06:13:49;19.80;99.90
7936;DHT22;4013;49.744;8.118;2023-07-13T06:16:17;19.80;99.90
7936;DHT22;4013;49.744;8.118;2023-07-13T06:18:44;19.80;99.90
7936;DHT22;4013;49.744;8.118;2023-07-13T06:21:13;19.60;99.90
7936;DHT22;4013;49.744;8.118;2023-07-13T06:23:40;19.60;99.90
7936;DHT22;4013;49.744;8.118;2023-07-13T06:26:08;19.60;99.90
7936;DHT22;4013;49.744;8.118;2023-07-13T06:28:36;19.60;99.90
7936;DHT22;4013;49.744;8.118;2023-07-13T06:31:07;19.80;99.90
7936;DHT22;4013;49.744;8.118;2023-07-13T06:33:34;19.90;99.90
7936;DHT22;4013;49.744;8.118;2023-07-13T06:36:02;20.00;99.90
7936;DHT22;4013;49.744;8.118;2023-07-13T06:38:29;20.20;99.90
7936;DHT22;4013;49.744;8.118;2023-07-13T06:40:56;20.40;99.90
7936;DHT22;4013;49.744;8.118;2023-07-13T06:43:23;20.50;99.90
7936;DHT22;4013;49.744;8.118;2023-07-13T06:45:53;20.50;99.90
7936;DHT22;4013;49.744;8.118;2023-07-13T06:48:22;20.70;99.90
7936;DHT22;4013;49.744;8.118;2023-07-13T06:50:50;20.70;99.90
7936;DHT22;4013;49.744;8.118;2023-07-13T06:53:18;20.80;99.90
7936;DHT22;4013;49.744;8.118;2023-07-13T06:55:45;21.00;99.90
7936;DHT22;4013;49.744;8.118;2023-07-13T06:58:18;20.80;99.90
7936;DHT22;4013;49.744;8.118;2023-07-13T07:00:45;20.80;99.90
7936;DHT22;4013;49.744;8.118;2023-07-13T07:03:12;20.80;99.90
7936;DHT22;4013;49.744;8.118;2023-07-13T07:05:40;20.80;99.90
7936;DHT22;4013;49.744;8.118;2023-07-13T07:08:07;20.90;99.90
7936;DHT22;4013;49.744;8.118;2023-07-13T07:13:11;21.30;99.90
7936;DHT22;4013;49.744;8.118;2023-07-13T07:15:38;21.40;99.90
7936;DHT22;4013;49.744;8.118;2023-07-13T07:18:05;21.60;99.90
7936;DHT22;4013;49.744;8.118;2023-07-13T07:20:32;21.60;99.90
7936;DHT22;4013;49.744;8.118;2023-07-13T07:23:01;21.80;99.90
7936;DHT22;4013;49.744;8.118;2023-07-13T07:25:28;21.80;99.90
7936;DHT22;4013;49.744;8.118;2023-07-13T07:27:57;21.70;99.90
7936;DHT22;4013;49.744;8.118;2023-07-13T07:30:25;21.50;99.90
7936;DHT22;4013;49.744;8.118;2023-07-13T07:32:51;21.60;99.90
7936;DHT22;4013;49.744;8.118;2023-07-13T07:35:18;21.80;99.90
7936;DHT22;4013;49.744;8.118;2023-07-13T07:37:46;21.60;99.90
7936;DHT22;4013;49.744;8.118;2023-07-13T07:40:14;21.70;99.90
7936;DHT22;4013;49.744;8.118;2023-07-13T07:42:41;21.80;99.90
7936;DHT22;4013;49.744;8.118;2023-07-13T07:45:09;21.80;99.90
7936;DHT22;4013;49.744;8.118;2023-07-13T07:47:37;21.90;99.90
7936;DHT22;4013;49.744;8.118;2023-07-13T07:50:04;21.80;99.90
7936;DHT22;4013;49.744;8.118;2023-07-13T07:52:31;21.60;99.90
7936;DHT22;4013;49.744;8.118;2023-07-13T07:54:58;21.70;99.90
7936;DHT22;4013;49.744;8.118;2023-07-13T07:57:27;21.80;99.90
7936;DHT22;4013;49.744;8.118;2023-07-13T07:59:54;21.80;99.90
7936;DHT22;4013;49.744;8.118;2023-07-13T08:02:21;21.90;99.90
7936;DHT22;4013;49.744;8.118;2023-07-13T08:04:47;22.10;99.90
7936;DHT22;4013;49.744;8.118;2023-07-13T08:07:14;22.20;99.90
7936;DHT22;4013;49.744;8.118;2023-07-13T08:09:41;22.10;99.90
7936;DHT22;4013;49.744;8.118;2023-07-13T08:12:09;22.20;99.90
7936;DHT22;4013;49.744;8.118;2023-07-13T08:14:37;22.20;99.90
7936;DHT22;4013;49.744;8.118;2023-07-13T08:17:04;22.10;99.90
7936;DHT22;4013;49.744;8.118;2023-07-13T08:19:31;21.90;99.90
7936;DHT22;4013;49.744;8.118;2023-07-13T08:21:58;21.90;99.90
7936;DHT22;4013;49.744;8.118;2023-07-13T08:24:25;22.10;99.90
7936;DHT22;4013;49.744;8.118;2023-07-13T08:26:52;22.20;99.90
7936;DHT22;4013;49.744;8.118;2023-07-13T08:29:20;22.30;99.90
7936;DHT22;4013;49.744;8.118;2023-07-13T08:31:48;22.50;99.90
7936;DHT22;4013;49.744;8.118;2023-07-13T08:34:15;22.60;99.10
7936;DHT22;4013;49.744;8.118;2023-07-13T08:36:42;22.60;99.10
7936;DHT22;4013;49.744;8.118;2023-07-13T08:39:09;22.40;98.90
7936;DHT22;4013;49.744;8.118;2023-07-13T08:41:36;22.40;98.90
7936;DHT22;4013;49.744;8.118;2023-07-13T08:44:13;22.50;99.10
7936;DHT22;4013;49.744;8.118;2023-07-13T08:46:47;22.50;99.60
7936;DHT22;4013;49.744;8.118;2023-07-13T08:49:19;22.60;99.00
7936;DHT22;4013;49.744;8.118;2023-07-13T08:51:51;22.40;99.90
7936;DHT22;4013;49.744;8.118;2023-07-13T08:54:24;22.50;99.70
7936;DHT22;4013;49.744;8.118;2023-07-13T08:56:56;22.60;99.50
7936;DHT22;4013;49.744;8.118;2023-07-13T08:59:26;22.70;99.90
7936;DHT22;4013;49.744;8.118;2023-07-13T09:02:25;22.70;99.00
7936;DHT22;4013;49.744;8.118;2023-07-13T09:04:56;22.70;98.60
7936;DHT22;4013;49.744;8.118;2023-07-13T09:07:31;22.80;98.30
7936;DHT22;4013;49.744;8.118;2023-07-13T09:10:11;22.80;97.80
7936;DHT22;4013;49.744;8.118;2023-07-13T09:12:50;23.00;97.90
7936;DHT22;4013;49.744;8.118;2023-07-13T09:15:26;23.20;96.50
7936;DHT22;4013;49.744;8.118;2023-07-13T09:18:01;23.10;97.20
7936;DHT22;4013;49.744;8.118;2023-07-13T09:20:32;23.20;96.80
7936;DHT22;4013;49.744;8.118;2023-07-13T09:23:03;23.30;96.90
7936;DHT22;4013;49.744;8.118;2023-07-13T09:25:32;23.40;96.10
7936;DHT22;4013;49.744;8.118;2023-07-13T09:28:03;23.40;95.80
7936;DHT22;4013;49.744;8.118;2023-07-13T09:30:43;23.40;96.50
7936;DHT22;4013;49.744;8.118;2023-07-13T09:33:13;23.40;96.10
7936;DHT22;4013;49.744;8.118;2023-07-13T09:35:40;23.30;94.60
7936;DHT22;4013;49.744;8.118;2023-07-13T09:38:12;23.30;95.60
7936;DHT22;4013;49.744;8.118;2023-07-13T09:40:46;23.10;94.60
7936;DHT22;4013;49.744;8.118;2023-07-13T09:43:17;23.20;95.50
7936;DHT22;4013;49.744;8.118;2023-07-13T09:45:46;23.10;96.40
7936;DHT22;4013;49.744;8.118;2023-07-13T09:48:17;23.20;97.20
7936;DHT22;4013;49.744;8.118;2023-07-13T09:50:44;23.30;96.70
7936;DHT22;4013;49.744;8.118;2023-07-13T09:53:13;23.40;97.30
7936;DHT22;4013;49.744;8.118;2023-07-13T09:55:44;23.50;98.50
7936;DHT22;4013;49.744;8.118;2023-07-13T09:58:14;23.50;98.60
7936;DHT22;4013;49.744;8.118;2023-07-13T10:00:41;23.60;97.60
7936;DHT22;4013;49.744;8.118;2023-07-13T10:03:19;23.70;99.90
7936;DHT22;4013;49.744;8.118;2023-07-13T10:05:49;23.70;99.60
7936;DHT22;4013;49.744;8.118;2023-07-13T10:08:23;23.80;99.90
7936;DHT22;4013;49.744;8.118;2023-07-13T10:10:54;23.90;99.90
7936;DHT22;4013;49.744;8.118;2023-07-13T10:13:27;23.80;99.90
7936;DHT22;4013;49.744;8.118;2023-07-13T10:15:55;23.80;99.90
7936;DHT22;4013;49.744;8.118;2023-07-13T10:18:24;23.90;99.90
7936;DHT22;4013;49.744;8.118;2023-07-13T10:20:54;23.90;99.90
7936;DHT22;4013;49.744;8.118;2023-07-13T10:23:32;23.60;99.90
7936;DHT22;4013;49.744;8.118;2023-07-13T10:26:00;23.70;99.90
7936;DHT22;4013;49.744;8.118;2023-07-13T10:28:31;23.60;99.90
7936;DHT22;4013;49.744;8.118;2023-07-13T10:31:01;23.60;99.90
7936;DHT22;4013;49.744;8.118;2023-07-13T10:33:29;23.70;99.90
7936;DHT22;4013;49.744;8.118;2023-07-13T10:36:07;24.00;99.90
7936;DHT22;4013;49.744;8.118;2023-07-13T10:38:38;24.10;99.90
7936;DHT22;4013;49.744;8.118;2023-07-13T10:41:10;24.30;85.90
7936;DHT22;4013;49.744;8.118;2023-07-13T10:43:41;24.40;84.90
7936;DHT22;4013;49.744;8.118;2023-07-13T10:46:11;24.40;84.80
7936;DHT22;4013;49.744;8.118;2023-07-13T10:48:40;24.10;85.50
7936;DHT22;4013;49.744;8.118;2023-07-13T10:51:10;24.10;85.00
7936;DHT22;4013;49.744;8.118;2023-07-13T10:53:39;23.90;85.30
7936;DHT22;4013;49.744;8.118;2023-07-13T10:56:21;23.80;86.90
7936;DHT22;4013;49.744;8.118;2023-07-13T10:59:02;23.60;86.40
7936;DHT22;4013;49.744;8.118;2023-07-13T11:01:40;23.70;86.80
7936;DHT22;4013;49.744;8.118;2023-07-13T11:04:14;23.70;85.70
7936;DHT22;4013;49.744;8.118;2023-07-13T11:06:42;23.70;87.20
7936;DHT22;4013;49.744;8.118;2023-07-13T11:09:36;23.80;87.70
7936;DHT22;4013;49.744;8.118;2023-07-13T11:12:08;23.80;86.90
7936;DHT22;4013;49.744;8.118;2023-07-13T11:14:43;23.70;86.60
7936;DHT22;4013;49.744;8.118;2023-07-13T11:17:33;23.70;87.50
7936;DHT22;4013;49.744;8.118;2023-07-13T11:20:24;23.90;87.50
7936;DHT22;4013;49.744;8.118;2023-07-13T11:23:18;23.90;86.10
7936;DHT22;4013;49.744;8.118;2023-07-13T11:25:46;24.00;84.80
7936;DHT22;4013;49.744;8.118;2023-07-13T11:28:24;23.90;86.90
7936;DHT22;4013;49.744;8.118;2023-07-13T11:31:14;23.90;87.90
7936;DHT22;4013;49.744;8.118;2023-07-13T11:33:51;24.00;88.10
7936;DHT22;4013;49.744;8.118;2023-07-13T11:36:21;24.20;87.20
7936;DHT22;4013;49.744;8.118;2023-07-13T11:38:57;24.20;87.00
7936;DHT22;4013;49.744;8.118;2023-07-13T11:41:28;24.10;86.30
7936;DHT22;4013;49.744;8.118;2023-07-13T11:44:04;24.00;87.00
7936;DHT22;4013;49.744;8.118;2023-07-13T11:46:32;24.00;87.00
7936;DHT22;4013;49.744;8.118;2023-07-13T11:48:59;24.10;87.00
7936;DHT22;4013;49.744;8.118;2023-07-13T11:51:30;24.10;86.00
7936;DHT22;4013;49.744;8.118;2023-07-13T11:54:02;23.90;85.80
7936;DHT22;4013;49.744;8.118;2023-07-13T11:56:30;23.90;86.00
7936;DHT22;4013;49.744;8.118;2023-07-13T11:59:07;23.90;85.40
7936;DHT22;4013;49.744;8.118;2023-07-13T12:01:36;23.80;86.30
7936;DHT22;4013;49.744;8.118;2023-07-13T12:04:17;23.70;84.80
7936;DHT22;4013;49.744;8.118;2023-07-13T12:06:56;23.70;84.80
7936;DHT22;4013;49.744;8.118;2023-07-13T12:09:26;23.60;83.50
7936;DHT22;4013;49.744;8.118;2023-07-13T12:11:54;23.80;83.80
7936;DHT22;4013;49.744;8.118;2023-07-13T12:14:21;23.90;84.20
7936;DHT22;4013;49.744;8.118;2023-07-13T12:16:50;24.00;84.10
7936;DHT22;4013;49.744;8.118;2023-07-13T12:19:20;24.10;82.60
7936;DHT22;4013;49.744;8.118;2023-07-13T12:21:52;24.00;85.50
7936;DHT22;4013;49.744;8.118;2023-07-13T12:24:20;24.00;83.80
7936;DHT22;4013;49.744;8.118;2023-07-13T12:26:51;24.10;84.30
7936;DHT22;4013;49.744;8.118;2023-07-13T12:29:19;24.00;83.30
7936;DHT22;4013;49.744;8.118;2023-07-13T12:31:47;24.00;83.60
7936;DHT22;4013;49.744;8.118;2023-07-13T12:34:16;24.10;84.10
7936;DHT22;4013;49.744;8.118;2023-07-13T12:36:46;24.10;83.70
7936;DHT22;4013;49.744;8.118;2023-07-13T12:39:18;24.20;83.90
7936;DHT22;4013;49.744;8.118;2023-07-13T12:41:46;24.10;83.40
7936;DHT22;4013;49.744;8.118;2023-07-13T12:44:16;24.10;84.20
7936;DHT22;4013;49.744;8.118;2023-07-13T12:46:58;24.00;83.40
7936;DHT22;4013;49.744;8.118;2023-07-13T12:49:29;24.10;84.00
7936;DHT22;4013;49.744;8.118;2023-07-13T12:52:02;24.00;83.70
7936;DHT22;4013;49.744;8.118;2023-07-13T12:54:31;24.10;84.00
7936;DHT22;4013;49.744;8.118;2023-07-13T12:56:59;24.00;83.40
7936;DHT22;4013;49.744;8.118;2023-07-13T12:59:31;24.00;85.50
7936;DHT22;4013;49.744;8.118;2023-07-13T13:02:02;24.00;82.90
7936;DHT22;4013;49.744;8.118;2023-07-13T13:04:30;23.80;82.60
7936;DHT22;4013;49.744;8.118;2023-07-13T13:07:09;23.80;82.80
7936;DHT22;4013;49.744;8.118;2023-07-13T13:09:38;23.80;83.20
7936;DHT22;4013;49.744;8.118;2023-07-13T13:12:06;23.80;83.80
7936;DHT22;4013;49.744;8.118;2023-07-13T13:14:33;23.90;83.90
7936;DHT22;4013;49.744;8.118;2023-07-13T13:17:00;23.90;83.70
7936;DHT22;4013;49.744;8.118;2023-07-13T13:19:29;23.70;83.00
7936;DHT22;4013;49.744;8.118;2023-07-13T13:21:56;23.70;83.50
7936;DHT22;4013;49.744;8.118;2023-07-13T13:24:27;23.70;83.60
7936;DHT22;4013;49.744;8.118;2023-07-13T13:26:56;23.80;83.90
7936;DHT22;4013;49.744;8.118;2023-07-13T13:29:24;23.90;83.10
7936;DHT22;4013;49.744;8.118;2023-07-13T13:31:52;24.00;83.20
7936;DHT22;4013;49.744;8.118;2023-07-13T13:34:20;24.00;82.90
7936;DHT22;4013;49.744;8.118;2023-07-13T13:36:49;24.10;83.00
7936;DHT22;4013;49.744;8.118;2023-07-13T13:39:20;24.20;82.20
7936;DHT22;4013;49.744;8.118;2023-07-13T13:41:48;24.20;81.00
7936;DHT22;4013;49.744;8.118;2023-07-13T13:44:18;24.20;80.70
7936;DHT22;4013;49.744;8.118;2023-07-13T13:46:47;23.90;79.40
7936;DHT22;4013;49.744;8.118;2023-07-13T13:49:16;24.00;79.50
7936;DHT22;4013;49.744;8.118;2023-07-13T13:51:44;24.00;79.80
7936;DHT22;4013;49.744;8.118;2023-07-13T13:54:12;24.00;79.10
7936;DHT22;4013;49.744;8.118;2023-07-13T13:56:42;24.10;79.20
7936;DHT22;4013;49.744;8.118;2023-07-13T13:59:09;24.40;79.40
7936;DHT22;4013;49.744;8.118;2023-07-13T14:01:38;24.60;79.80
7936;DHT22;4013;49.744;8.118;2023-07-13T14:04:06;24.90;80.80
7936;DHT22;4013;49.744;8.118;2023-07-13T14:06:34;24.90;79.70
7936;DHT22;4013;49.744;8.118;2023-07-13T14:09:01;24.90;79.20
7936;DHT22;4013;49.744;8.118;2023-07-13T14:11:30;24.70;80.00
7936;DHT22;4013;49.744;8.118;2023-07-13T14:13:59;24.70;80.20
7936;DHT22;4013;49.744;8.118;2023-07-13T14:16:30;24.80;79.70
7936;DHT22;4013;49.744;8.118;2023-07-13T14:18:59;24.80;80.80
7936;DHT22;4013;49.744;8.118;2023-07-13T14:21:28;24.70;81.60
7936;DHT22;4013;49.744;8.118;2023-07-13T14:23:55;24.70;81.40
7936;DHT22;4013;49.744;8.118;2023-07-13T14:26:24;24.70;81.60
7936;DHT22;4013;49.744;8.118;2023-07-13T14:28:53;24.50;82.90
7936;DHT22;4013;49.744;8.118;2023-07-13T14:31:21;24.50;82.90
7936;DHT22;4013;49.744;8.118;2023-07-13T14:33:48;24.40;82.40
7936;DHT22;4013;49.744;8.118;2023-07-13T14:36:25;24.30;79.40
7936;DHT22;4013;49.744;8.118;2023-07-13T14:38:53;24.30;83.30
7936;DHT22;4013;49.744;8.118;2023-07-13T14:41:20;24.30;81.60
7936;DHT22;4013;49.744;8.118;2023-07-13T14:43:47;24.40;79.40
7936;DHT22;4013;49.744;8.118;2023-07-13T14:46:28;24.50;79.80
7936;DHT22;4013;49.744;8.118;2023-07-13T14:49:01;24.50;80.50
7936;DHT22;4013;49.744;8.118;2023-07-13T14:51:31;24.50;81.10
7936;DHT22;4013;49.744;8.118;2023-07-13T14:54:00;24.50;80.00
7936;DHT22;4013;49.744;8.118;2023-07-13T14:56:27;24.50;80.10
7936;DHT22;4013;49.744;8.118;2023-07-13T14:58:54;24.60;80.50
7936;DHT22;4013;49.744;8.118;2023-07-13T15:01:21;24.60;81.00
7936;DHT22;4013;49.744;8.118;2023-07-13T15:03:50;24.50;81.00
7936;DHT22;4013;49.744;8.118;2023-07-13T15:06:18;24.50;80.00
7936;DHT22;4013;49.744;8.118;2023-07-13T15:08:47;24.50;79.60
7936;DHT22;4013;49.744;8.118;2023-07-13T15:11:15;24.50;79.40
7936;DHT22;4013;49.744;8.118;2023-07-13T15:13:42;24.50;79.30
7936;DHT22;4013;49.744;8.118;2023-07-13T15:16:16;24.70;78.70
7936;DHT22;4013;49.744;8.118;2023-07-13T15:18:44;24.60;78.80
7936;DHT22;4013;49.744;8.118;2023-07-13T15:21:14;24.60;79.00
7936;DHT22;4013;49.744;8.118;2023-07-13T15:23:44;24.40;78.80
7936;DHT22;4013;49.744;8.118;2023-07-13T15:26:13;24.50;77.60
7936;DHT22;4013;49.744;8.118;2023-07-13T15:28:41;24.50;77.20
7936;DHT22;4013;49.744;8.118;2023-07-13T15:31:20;24.50;77.40
7936;DHT22;4013;49.744;8.118;2023-07-13T15:33:48;24.40;79.30
7936;DHT22;4013;49.744;8.118;2023-07-13T15:36:16;24.30;78.80
7936;DHT22;4013;49.744;8.118;2023-07-13T15:38:44;24.20;77.50
7936;DHT22;4013;49.744;8.118;2023-07-13T15:41:18;24.20;76.80
7936;DHT22;4013;49.744;8.118;2023-07-13T15:43:48;24.50;78.70
7936;DHT22;4013;49.744;8.118;2023-07-13T15:46:17;24.70;78.60
7936;DHT22;4013;49.744;8.118;2023-07-13T15:48:45;24.80;77.70
7936;DHT22;4013;49.744;8.118;2023-07-13T15:51:19;24.70;76.20
7936;DHT22;4013;49.744;8.118;2023-07-13T15:53:47;24.60;76.70
7936;DHT22;4013;49.744;8.118;2023-07-13T15:56:26;24.60;76.20
7936;DHT22;4013;49.744;8.118;2023-07-13T15:58:54;24.40;77.40
7936;DHT22;4013;49.744;8.118;2023-07-13T16:01:22;24.70;80.50
7936;DHT22;4013;49.744;8.118;2023-07-13T16:03:49;25.00;78.20
7936;DHT22;4013;49.744;8.118;2023-07-13T16:06:19;25.00;76.80
7936;DHT22;4013;49.744;8.118;2023-07-13T16:08:48;24.90;76.80
7936;DHT22;4013;49.744;8.118;2023-07-13T16:11:20;25.00;77.70
7936;DHT22;4013;49.744;8.118;2023-07-13T16:13:48;24.70;79.60
7936;DHT22;4013;49.744;8.118;2023-07-13T16:16:21;24.50;77.50
7936;DHT22;4013;49.744;8.118;2023-07-13T16:18:51;24.50;80.80